sensor_id;sensor_type;location;lat;lon;timestamp;P1;durP1;ratioP1;P2;durP2;ratioP2
75916;SDS011;64595;50.148;14.334;2024-03-02T00:00:41;101.78;;;48.22;;
75916;SDS011;64595;50.148;14.334;2024-03-02T00:03:08;87.05;;;44.47;;
75916;SDS011;64595;50.148;14.334;2024-03-02T00:05:33;94.60;;;47.00;;
75916;SDS011;64595;50.148;14.334;2024-03-02T00:07:59;91.88;;;46.95;;
75916;SDS011;64595;50.148;14.334;2024-03-02T00:10:25;103.47;;;50.35;;
75916;SDS011;64595;50.148;14.334;2024-03-02T00:12:51;101.03;;;47.13;;
75916;SDS011;64595;50.148;14.334;2024-03-02T00:15:28;106.10;;;50.70;;
75916;SDS011;64595;50.148;14.334;2024-03-02T00:18:03;107.32;;;51.83;;
75916;SDS011;64595;50.148;14.334;2024-03-02T00:20:30;95.30;;;48.25;;
75916;SDS011;64595;50.148;14.334;2024-03-02T00:22:57;98.35;;;48.80;;
75916;SDS011;64595;50.148;14.334;2024-03-02T00:25:38;94.10;;;47.05;;
75916;SDS011;64595;50.148;14.334;2024-03-02T00:28:04;98.63;;;44.92;;
75916;SDS011;64595;50.148;14.334;2024-03-02T00:30:38;85.45;;;44.15;;
75916;SDS011;64595;50.148;14.334;2024-03-02T00:33:31;92.95;;;44.83;;
75916;SDS011;64595;50.148;14.334;2024-03-02T00:35:59;93.78;;;47.55;;
75916;SDS011;64595;50.148;14.334;2024-03-02T00:38:25;93.43;;;44.22;;
75916;SDS011;64595;50.148;14.334;2024-03-02T00:40:50;102.32;;;45.88;;
75916;SDS011;64595;50.148;14.334;2024-03-02T00:46:07;96.55;;;44.15;;
75916;SDS011;64595;50.148;14.334;2024-03-02T00:48:33;100.43;;;45.30;;
75916;SDS011;64595;50.148;14.334;2024-03-02T00:51:00;97.15;;;45.63;;
75916;SDS011;64595;50.148;14.334;2024-03-02T00:53:25;95.07;;;45.47;;
75916;SDS011;64595;50.148;14.334;2024-03-02T00:55:51;90.13;;;43.95;;
75916;SDS011;64595;50.148;14.334;2024-03-02T00:58:17;84.72;;;41.38;;
75916;SDS011;64595;50.148;14.334;2024-03-02T01:00:42;92.63;;;42.65;;
75916;SDS011;64595;50.148;14.334;2024-03-02T01:03:08;90.88;;;42.90;;
75916;SDS011;64595;50.148;14.334;2024-03-02T01:05:33;91.40;;;42.80;;
75916;SDS011;64595;50.148;14.334;2024-03-02T01:08:00;89.45;;;43.55;;
75916;SDS011;64595;50.148;14.334;2024-03-02T01:10:26;98.60;;;44.45;;
75916;SDS011;64595;50.148;14.334;2024-03-02T01:12:51;105.43;;;45.70;;
75916;SDS011;64595;50.148;14.334;2024-03-02T01:15:17;97.75;;;43.42;;
75916;SDS011;64595;50.148;14.334;2024-03-02T01:17:42;96.50;;;44.47;;
75916;SDS011;64595;50.148;14.334;2024-03-02T01:20:08;91.40;;;42.15;;
75916;SDS011;64595;50.148;14.334;2024-03-02T01:22:34;97.43;;;44.15;;
75916;SDS011;64595;50.148;14.334;2024-03-02T01:25:00;95.28;;;43.08;;
75916;SDS011;64595;50.148;14.334;2024-03-02T01:27:26;97.85;;;43.97;;
75916;SDS011;64595;50.148;14.334;2024-03-02T01:29:51;95.72;;;45.45;;
75916;SDS011;64595;50.148;14.334;2024-03-02T01:32:17;87.28;;;43.38;;
75916;SDS011;64595;50.148;14.334;2024-03-02T01:34:42;90.85;;;43.03;;
75916;SDS011;64595;50.148;14.334;2024-03-02T01:37:08;90.80;;;42.97;;
75916;SDS011;64595;50.148;14.334;2024-03-02T01:39:33;84.93;;;42.67;;
75916;SDS011;64595;50.148;14.334;2024-03-02T01:42:00;89.25;;;43.72;;
75916;SDS011;64595;50.148;14.334;2024-03-02T01:44:26;97.05;;;45.95;;
75916;SDS011;64595;50.148;14.334;2024-03-02T01:46:51;96.72;;;45.83;;
75916;SDS011;64595;50.148;14.334;2024-03-02T01:49:23;96.63;;;45.65;;
75916;SDS011;64595;50.148;14.334;2024-03-02T01:51:48;91.90;;;42.30;;
75916;SDS011;64595;50.148;14.334;2024-03-02T01:54:14;96.50;;;46.58;;
75916;SDS011;64595;50.148;14.334;2024-03-02T01:56:39;88.10;;;43.78;;
75916;SDS011;64595;50.148;14.334;2024-03-02T01:59:06;90.05;;;46.10;;
75916;SDS011;64595;50.148;14.334;2024-03-02T02:01:32;94.28;;;46.13;;
75916;SDS011;64595;50.148;14.334;2024-03-02T02:03:57;95.40;;;45.55;;
75916;SDS011;64595;50.148;14.334;2024-03-02T02:06:23;83.28;;;40.10;;
75916;SDS011;64595;50.148;14.334;2024-03-02T02:08:49;95.35;;;44.92;;
75916;SDS011;64595;50.148;14.334;2024-03-02T02:11:14;82.72;;;39.88;;
75916;SDS011;64595;50.148;14.334;2024-03-02T02:13:40;88.30;;;42.90;;
75916;SDS011;64595;50.148;14.334;2024-03-02T02:16:07;83.03;;;40.45;;
75916;SDS011;64595;50.148;14.334;2024-03-02T02:18:33;93.28;;;45.25;;
75916;SDS011;64595;50.148;14.334;2024-03-02T02:20:59;82.88;;;43.33;;
75916;SDS011;64595;50.148;14.334;2024-03-02T02:23:26;87.80;;;43.17;;
75916;SDS011;64595;50.148;14.334;2024-03-02T02:25:51;97.65;;;44.83;;
75916;SDS011;64595;50.148;14.334;2024-03-02T02:28:16;80.13;;;40.00;;
75916;SDS011;64595;50.148;14.334;2024-03-02T02:30:42;85.72;;;42.92;;
75916;SDS011;64595;50.148;14.334;2024-03-02T02:33:07;92.90;;;44.33;;
75916;SDS011;64595;50.148;14.334;2024-03-02T02:35:33;98.95;;;45.08;;
75916;SDS011;64595;50.148;14.334;2024-03-02T02:37:58;95.63;;;46.45;;
75916;SDS011;64595;50.148;14.334;2024-03-02T02:40:25;90.55;;;42.88;;
75916;SDS011;64595;50.148;14.334;2024-03-02T02:42:51;94.45;;;44.88;;
75916;SDS011;64595;50.148;14.334;2024-03-02T02:45:16;90.30;;;43.38;;
75916;SDS011;64595;50.148;14.334;2024-03-02T02:47:42;84.82;;;40.20;;
75916;SDS011;64595;50.148;14.334;2024-03-02T02:50:08;73.97;;;35.60;;
75916;SDS011;64595;50.148;14.334;2024-03-02T02:52:34;75.65;;;39.90;;
75916;SDS011;64595;50.148;14.334;2024-03-02T02:55:00;80.60;;;41.28;;
75916;SDS011;64595;50.148;14.334;2024-03-02T02:57:26;77.05;;;37.10;;
75916;SDS011;64595;50.148;14.334;2024-03-02T02:59:52;78.47;;;37.60;;
75916;SDS011;64595;50.148;14.334;2024-03-02T03:02:17;72.85;;;37.38;;
75916;SDS011;64595;50.148;14.334;2024-03-02T03:04:43;71.57;;;36.28;;
75916;SDS011;64595;50.148;14.334;2024-03-02T03:07:08;63.47;;;35.17;;
75916;SDS011;64595;50.148;14.334;2024-03-02T03:09:33;76.25;;;35.55;;
75916;SDS011;64595;50.148;14.334;2024-03-02T03:12:02;73.90;;;37.08;;
75916;SDS011;64595;50.148;14.334;2024-03-02T03:14:29;78.30;;;39.83;;
75916;SDS011;64595;50.148;14.334;2024-03-02T03:16:55;77.80;;;39.92;;
75916;SDS011;64595;50.148;14.334;2024-03-02T03:19:20;70.72;;;37.13;;
75916;SDS011;64595;50.148;14.334;2024-03-02T03:21:45;67.43;;;34.25;;
75916;SDS011;64595;50.148;14.334;2024-03-02T03:24:11;66.45;;;34.70;;
75916;SDS011;64595;50.148;14.334;2024-03-02T03:26:36;67.88;;;33.70;;
75916;SDS011;64595;50.148;14.334;2024-03-02T03:29:02;66.95;;;33.90;;
75916;SDS011;64595;50.148;14.334;2024-03-02T03:31:29;61.75;;;33.97;;
75916;SDS011;64595;50.148;14.334;2024-03-02T03:33:54;66.63;;;33.30;;
75916;SDS011;64595;50.148;14.334;2024-03-02T03:36:20;78.57;;;34.90;;
75916;SDS011;64595;50.148;14.334;2024-03-02T03:38:45;76.18;;;34.63;;
75916;SDS011;64595;50.148;14.334;2024-03-02T03:41:11;80.57;;;36.50;;
75916;SDS011;64595;50.148;14.334;2024-03-02T03:43:36;75.15;;;37.15;;
75916;SDS011;64595;50.148;14.334;2024-03-02T03:46:02;83.30;;;35.00;;
75916;SDS011;64595;50.148;14.334;2024-03-02T03:48:29;73.88;;;32.47;;
75916;SDS011;64595;50.148;14.334;2024-03-02T03:50:54;72.72;;;33.72;;
75916;SDS011;64595;50.148;14.334;2024-03-02T03:53:20;74.35;;;38.38;;
75916;SDS011;64595;50.148;14.334;2024-03-02T03:55:45;82.57;;;40.40;;
75916;SDS011;64595;50.148;14.334;2024-03-02T03:58:11;78.47;;;37.03;;
75916;SDS011;64595;50.148;14.334;2024-03-02T04:00:36;75.25;;;33.60;;
75916;SDS011;64595;50.148;14.334;2024-03-02T04:03:02;84.70;;;37.90;;
75916;SDS011;64595;50.148;14.334;2024-03-02T04:05:29;76.63;;;35.55;;
75916;SDS011;64595;50.148;14.334;2024-03-02T04:07:54;74.53;;;33.60;;
75916;SDS011;64595;50.148;14.334;2024-03-02T04:10:20;75.80;;;33.55;;
75916;SDS011;64595;50.148;14.334;2024-03-02T04:12:45;68.95;;;32.55;;
75916;SDS011;64595;50.148;14.334;2024-03-02T04:15:10;69.88;;;32.92;;
75916;SDS011;64595;50.148;14.334;2024-03-02T04:17:36;69.68;;;34.13;;
75916;SDS011;64595;50.148;14.334;2024-03-02T04:20:01;72.07;;;33.28;;
75916;SDS011;64595;50.148;14.334;2024-03-02T04:22:29;67.80;;;33.75;;
75916;SDS011;64595;50.148;14.334;2024-03-02T04:24:54;68.97;;;32.97;;
75916;SDS011;64595;50.148;14.334;2024-03-02T04:27:19;69.88;;;33.67;;
75916;SDS011;64595;50.148;14.334;2024-03-02T04:29:45;67.55;;;35.05;;
75916;SDS011;64595;50.148;14.334;2024-03-02T04:32:10;75.38;;;35.25;;
75916;SDS011;64595;50.148;14.334;2024-03-02T04:34:36;66.70;;;34.80;;
75916;SDS011;64595;50.148;14.334;2024-03-02T04:37:01;67.30;;;32.72;;
75916;SDS011;64595;50.148;14.334;2024-03-02T04:39:28;73.10;;;35.83;;
75916;SDS011;64595;50.148;14.334;2024-03-02T04:41:54;70.63;;;32.40;;
75916;SDS011;64595;50.148;14.334;2024-03-02T04:44:19;71.20;;;33.22;;
75916;SDS011;64595;50.148;14.334;2024-03-02T04:46:44;73.97;;;33.95;;
75916;SDS011;64595;50.148;14.334;2024-03-02T04:49:10;68.18;;;32.78;;
75916;SDS011;64595;50.148;14.334;2024-03-02T04:51:35;68.97;;;33.33;;
75916;SDS011;64595;50.148;14.334;2024-03-02T04:54:01;67.72;;;31.92;;
75916;SDS011;64595;50.148;14.334;2024-03-02T04:56:28;70.30;;;33.25;;
75916;SDS011;64595;50.148;14.334;2024-03-02T04:58:53;60.47;;;28.85;;
75916;SDS011;64595;50.148;14.334;2024-03-02T05:03:52;60.60;;;27.70;;
75916;SDS011;64595;50.148;14.334;2024-03-02T05:06:18;65.60;;;28.55;;
75916;SDS011;64595;50.148;14.334;2024-03-02T05:08:43;58.17;;;26.50;;
75916;SDS011;64595;50.148;14.334;2024-03-02T05:11:09;52.40;;;26.42;;
75916;SDS011;64595;50.148;14.334;2024-03-02T05:13:35;59.88;;;28.88;;
75916;SDS011;64595;50.148;14.334;2024-03-02T05:16:01;49.63;;;24.52;;
75916;SDS011;64595;50.148;14.334;2024-03-02T05:18:27;44.42;;;25.35;;
75916;SDS011;64595;50.148;14.334;2024-03-02T05:20:52;52.78;;;26.20;;
75916;SDS011;64595;50.148;14.334;2024-03-02T05:23:18;49.38;;;25.25;;
75916;SDS011;64595;50.148;14.334;2024-03-02T05:25:43;45.38;;;24.67;;
75916;SDS011;64595;50.148;14.334;2024-03-02T05:28:09;45.65;;;23.50;;
75916;SDS011;64595;50.148;14.334;2024-03-02T05:30:35;45.67;;;25.08;;
75916;SDS011;64595;50.148;14.334;2024-03-02T05:33:01;46.40;;;23.30;;
75916;SDS011;64595;50.148;14.334;2024-03-02T05:35:26;50.63;;;25.85;;
75916;SDS011;64595;50.148;14.334;2024-03-02T05:37:52;51.45;;;25.25;;
75916;SDS011;64595;50.148;14.334;2024-03-02T05:40:17;47.15;;;23.98;;
75916;SDS011;64595;50.148;14.334;2024-03-02T05:42:43;46.88;;;23.50;;
75916;SDS011;64595;50.148;14.334;2024-03-02T05:45:08;49.15;;;24.00;;
75916;SDS011;64595;50.148;14.334;2024-03-02T05:47:35;44.67;;;22.30;;
75916;SDS011;64595;50.148;14.334;2024-03-02T05:50:01;42.03;;;22.40;;
75916;SDS011;64595;50.148;14.334;2024-03-02T05:52:26;42.15;;;21.70;;
75916;SDS011;64595;50.148;14.334;2024-03-02T05:54:52;39.83;;;20.50;;
75916;SDS011;64595;50.148;14.334;2024-03-02T05:57:18;43.20;;;21.58;;
75916;SDS011;64595;50.148;14.334;2024-03-02T05:59:44;36.08;;;18.88;;
75916;SDS011;64595;50.148;14.334;2024-03-02T06:02:09;38.53;;;20.67;;
75916;SDS011;64595;50.148;14.334;2024-03-02T06:04:36;36.20;;;18.80;;
75916;SDS011;64595;50.148;14.334;2024-03-02T06:07:02;38.85;;;19.95;;
75916;SDS011;64595;50.148;14.334;2024-03-02T06:09:28;36.08;;;19.60;;
75916;SDS011;64595;50.148;14.334;2024-03-02T06:11:53;34.63;;;19.55;;
75916;SDS011;64595;50.148;14.334;2024-03-02T06:14:18;41.72;;;21.25;;
75916;SDS011;64595;50.148;14.334;2024-03-02T06:16:44;36.90;;;19.25;;
75916;SDS011;64595;50.148;14.334;2024-03-02T06:19:10;35.38;;;20.10;;
75916;SDS011;64595;50.148;14.334;2024-03-02T06:21:37;35.83;;;18.73;;
75916;SDS011;64595;50.148;14.334;2024-03-02T06:24:03;37.38;;;19.83;;
75916;SDS011;64595;50.148;14.334;2024-03-02T06:26:29;37.53;;;19.50;;
75916;SDS011;64595;50.148;14.334;2024-03-02T06:28:54;36.65;;;19.23;;
75916;SDS011;64595;50.148;14.334;2024-03-02T06:31:20;38.60;;;20.25;;
75916;SDS011;64595;50.148;14.334;2024-03-02T06:33:45;39.15;;;21.38;;
75916;SDS011;64595;50.148;14.334;2024-03-02T06:36:11;41.13;;;20.58;;
75916;SDS011;64595;50.148;14.334;2024-03-02T06:38:38;36.33;;;20.75;;
75916;SDS011;64595;50.148;14.334;2024-03-02T06:41:04;39.25;;;19.20;;
75916;SDS011;64595;50.148;14.334;2024-03-02T06:43:29;37.40;;;19.92;;
75916;SDS011;64595;50.148;14.334;2024-03-02T06:45:55;36.72;;;20.60;;
75916;SDS011;64595;50.148;14.334;2024-03-02T06:48:20;38.50;;;19.73;;
75916;SDS011;64595;50.148;14.334;2024-03-02T06:50:46;40.55;;;19.75;;
75916;SDS011;64595;50.148;14.334;2024-03-02T06:53:11;36.78;;;19.10;;
75916;SDS011;64595;50.148;14.334;2024-03-02T06:55:38;43.17;;;23.38;;
75916;SDS011;64595;50.148;14.334;2024-03-02T06:58:03;37.40;;;20.42;;
75916;SDS011;64595;50.148;14.334;2024-03-02T07:00:29;37.40;;;18.90;;
75916;SDS011;64595;50.148;14.334;2024-03-02T07:02:54;36.15;;;19.85;;
75916;SDS011;64595;50.148;14.334;2024-03-02T07:05:20;38.28;;;20.15;;
75916;SDS011;64595;50.148;14.334;2024-03-02T07:07:45;36.65;;;19.40;;
75916;SDS011;64595;50.148;14.334;2024-03-02T07:10:11;35.67;;;19.95;;
75916;SDS011;64595;50.148;14.334;2024-03-02T07:12:38;35.72;;;18.88;;
75916;SDS011;64595;50.148;14.334;2024-03-02T07:15:03;36.95;;;20.42;;
75916;SDS011;64595;50.148;14.334;2024-03-02T07:17:29;39.28;;;20.05;;
75916;SDS011;64595;50.148;14.334;2024-03-02T07:19:55;37.83;;;20.77;;
75916;SDS011;64595;50.148;14.334;2024-03-02T07:22:20;31.60;;;17.88;;
75916;SDS011;64595;50.148;14.334;2024-03-02T07:24:47;33.63;;;18.30;;
75916;SDS011;64595;50.148;14.334;2024-03-02T07:27:13;35.63;;;18.00;;
75916;SDS011;64595;50.148;14.334;2024-03-02T07:29:40;34.00;;;17.67;;
75916;SDS011;64595;50.148;14.334;2024-03-02T07:32:06;30.98;;;17.90;;
75916;SDS011;64595;50.148;14.334;2024-03-02T07:34:32;37.35;;;19.13;;
75916;SDS011;64595;50.148;14.334;2024-03-02T07:36:57;33.60;;;17.98;;
75916;SDS011;64595;50.148;14.334;2024-03-02T07:39:22;34.35;;;18.90;;
75916;SDS011;64595;50.148;14.334;2024-03-02T07:41:48;31.80;;;17.92;;
75916;SDS011;64595;50.148;14.334;2024-03-02T07:44:14;35.65;;;19.70;;
75916;SDS011;64595;50.148;14.334;2024-03-02T07:46:41;36.42;;;18.85;;
75916;SDS011;64595;50.148;14.334;2024-03-02T07:49:06;34.45;;;19.33;;
75916;SDS011;64595;50.148;14.334;2024-03-02T07:51:32;35.08;;;18.23;;
75916;SDS011;64595;50.148;14.334;2024-03-02T07:53:57;33.55;;;18.55;;
75916;SDS011;64595;50.148;14.334;2024-03-02T07:56:23;62.28;;;27.48;;
75916;SDS011;64595;50.148;14.334;2024-03-02T07:58:50;41.67;;;19.00;;
75916;SDS011;64595;50.148;14.334;2024-03-02T08:01:17;49.72;;;25.17;;
75916;SDS011;64595;50.148;14.334;2024-03-02T08:03:44;30.15;;;16.40;;
75916;SDS011;64595;50.148;14.334;2024-03-02T08:06:10;31.73;;;16.90;;
75916;SDS011;64595;50.148;14.334;2024-03-02T08:08:35;34.38;;;18.30;;
75916;SDS011;64595;50.148;14.334;2024-03-02T08:11:01;48.65;;;21.52;;
75916;SDS011;64595;50.148;14.334;2024-03-02T08:13:26;38.72;;;19.73;;
75916;SDS011;64595;50.148;14.334;2024-03-02T08:15:52;31.70;;;16.98;;
75916;SDS011;64595;50.148;14.334;2024-03-02T08:18:18;29.50;;;13.95;;
75916;SDS011;64595;50.148;14.334;2024-03-02T08:20:45;50.58;;;23.48;;
75916;SDS011;64595;50.148;14.334;2024-03-02T08:23:10;35.95;;;18.33;;
75916;SDS011;64595;50.148;14.334;2024-03-02T08:25:35;33.25;;;16.83;;
75916;SDS011;64595;50.148;14.334;2024-03-02T08:28:02;37.45;;;18.55;;
75916;SDS011;64595;50.148;14.334;2024-03-02T08:30:27;71.97;;;30.80;;
75916;SDS011;64595;50.148;14.334;2024-03-02T08:32:53;35.65;;;18.60;;
75916;SDS011;64595;50.148;14.334;2024-03-02T08:35:18;33.03;;;17.25;;
75916;SDS011;64595;50.148;14.334;2024-03-02T08:37:45;64.43;;;29.75;;
75916;SDS011;64595;50.148;14.334;2024-03-02T08:40:11;29.02;;;17.42;;
75916;SDS011;64595;50.148;14.334;2024-03-02T08:42:36;36.63;;;20.50;;
75916;SDS011;64595;50.148;14.334;2024-03-02T08:45:02;34.30;;;17.42;;
75916;SDS011;64595;50.148;14.334;2024-03-02T08:47:28;31.85;;;17.92;;
75916;SDS011;64595;50.148;14.334;2024-03-02T08:49:53;39.58;;;17.92;;
75916;SDS011;64595;50.148;14.334;2024-03-02T08:52:19;31.35;;;17.17;;
75916;SDS011;64595;50.148;14.334;2024-03-02T08:54:46;112.28;;;45.17;;
75916;SDS011;64595;50.148;14.334;2024-03-02T08:57:11;43.50;;;22.05;;
75916;SDS011;64595;50.148;14.334;2024-03-02T08:59:37;31.15;;;16.92;;
75916;SDS011;64595;50.148;14.334;2024-03-02T09:02:02;31.40;;;17.05;;
75916;SDS011;64595;50.148;14.334;2024-03-02T09:04:28;27.20;;;15.38;;
75916;SDS011;64595;50.148;14.334;2024-03-02T09:06:53;28.83;;;16.27;;
75916;SDS011;64595;50.148;14.334;2024-03-02T09:09:19;31.67;;;16.88;;
75916;SDS011;64595;50.148;14.334;2024-03-02T09:11:46;28.65;;;15.15;;
75916;SDS011;64595;50.148;14.334;2024-03-02T09:14:12;26.98;;;15.10;;
75916;SDS011;64595;50.148;14.334;2024-03-02T09:16:37;28.15;;;15.55;;
75916;SDS011;64595;50.148;14.334;2024-03-02T09:19:03;27.25;;;16.13;;
75916;SDS011;64595;50.148;14.334;2024-03-02T09:21:28;24.60;;;14.55;;
75916;SDS011;64595;50.148;14.334;2024-03-02T09:23:54;32.08;;;17.98;;
75916;SDS011;64595;50.148;14.334;2024-03-02T09:26:19;26.70;;;15.05;;
75916;SDS011;64595;50.148;14.334;2024-03-02T09:28:46;27.65;;;14.70;;
75916;SDS011;64595;50.148;14.334;2024-03-02T09:31:12;29.90;;;15.27;;
75916;SDS011;64595;50.148;14.334;2024-03-02T09:33:37;31.58;;;16.98;;
75916;SDS011;64595;50.148;14.334;2024-03-02T09:36:03;29.13;;;15.15;;
75916;SDS011;64595;50.148;14.334;2024-03-02T09:38:29;29.55;;;14.52;;
75916;SDS011;64595;50.148;14.334;2024-03-02T09:40:55;26.35;;;13.40;;
75916;SDS011;64595;50.148;14.334;2024-03-02T09:43:21;25.13;;;14.45;;
75916;SDS011;64595;50.148;14.334;2024-03-02T09:45:47;27.23;;;15.15;;
75916;SDS011;64595;50.148;14.334;2024-03-02T09:48:13;26.88;;;15.35;;
75916;SDS011;64595;50.148;14.334;2024-03-02T09:50:38;24.15;;;13.65;;
75916;SDS011;64595;50.148;14.334;2024-03-02T09:53:04;27.45;;;14.07;;
75916;SDS011;64595;50.148;14.334;2024-03-02T09:55:30;23.63;;;13.00;;
75916;SDS011;64595;50.148;14.334;2024-03-02T09:57:55;25.45;;;13.68;;
75916;SDS011;64595;50.148;14.334;2024-03-02T10:00:21;20.88;;;11.82;;
75916;SDS011;64595;50.148;14.334;2024-03-02T10:02:48;25.05;;;13.25;;
75916;SDS011;64595;50.148;14.334;2024-03-02T10:05:13;21.35;;;12.45;;
75916;SDS011;64595;50.148;14.334;2024-03-02T10:07:52;23.15;;;12.85;;
75916;SDS011;64595;50.148;14.334;2024-03-02T10:10:26;25.20;;;12.30;;
75916;SDS011;64595;50.148;14.334;2024-03-02T10:13:03;21.02;;;12.15;;
75916;SDS011;64595;50.148;14.334;2024-03-02T10:15:29;25.80;;;13.55;;
75916;SDS011;64595;50.148;14.334;2024-03-02T10:17:56;21.48;;;12.30;;
75916;SDS011;64595;50.148;14.334;2024-03-02T10:20:22;24.02;;;12.18;;
75916;SDS011;64595;50.148;14.334;2024-03-02T10:22:47;21.88;;;12.55;;
75916;SDS011;64595;50.148;14.334;2024-03-02T10:25:27;22.92;;;11.73;;
75916;SDS011;64595;50.148;14.334;2024-03-02T10:27:56;21.25;;;12.15;;
75916;SDS011;64595;50.148;14.334;2024-03-02T10:30:22;19.45;;;10.98;;
75916;SDS011;64595;50.148;14.334;2024-03-02T10:32:48;30.90;;;16.10;;
75916;SDS011;64595;50.148;14.334;2024-03-02T10:35:16;23.95;;;12.80;;
75916;SDS011;64595;50.148;14.334;2024-03-02T10:37:41;22.90;;;12.10;;
75916;SDS011;64595;50.148;14.334;2024-03-02T10:40:07;19.63;;;13.00;;
75916;SDS011;64595;50.148;14.334;2024-03-02T10:42:35;20.17;;;12.52;;
75916;SDS011;64595;50.148;14.334;2024-03-02T10:45:02;23.63;;;12.60;;
75916;SDS011;64595;50.148;14.334;2024-03-02T10:47:29;21.60;;;11.60;;
75916;SDS011;64595;50.148;14.334;2024-03-02T10:49:56;24.73;;;13.50;;
75916;SDS011;64595;50.148;14.334;2024-03-02T10:52:24;20.92;;;12.23;;
75916;SDS011;64595;50.148;14.334;2024-03-02T10:54:49;20.63;;;12.15;;
75916;SDS011;64595;50.148;14.334;2024-03-02T10:57:15;23.02;;;11.63;;
75916;SDS011;64595;50.148;14.334;2024-03-02T10:59:44;20.23;;;11.75;;
75916;SDS011;64595;50.148;14.334;2024-03-02T11:02:17;23.17;;;12.73;;
75916;SDS011;64595;50.148;14.334;2024-03-02T11:04:42;20.67;;;12.50;;
75916;SDS011;64595;50.148;14.334;2024-03-02T11:07:09;20.60;;;12.38;;
75916;SDS011;64595;50.148;14.334;2024-03-02T11:09:37;21.63;;;12.13;;
75916;SDS011;64595;50.148;14.334;2024-03-02T11:12:08;21.27;;;12.07;;
75916;SDS011;64595;50.148;14.334;2024-03-02T11:14:37;21.92;;;11.23;;
75916;SDS011;64595;50.148;14.334;2024-03-02T11:17:06;18.60;;;11.60;;
75916;SDS011;64595;50.148;14.334;2024-03-02T11:19:32;19.15;;;11.63;;
75916;SDS011;64595;50.148;14.334;2024-03-02T11:21:58;23.92;;;13.18;;
75916;SDS011;64595;50.148;14.334;2024-03-02T11:24:33;18.45;;;12.13;;
75916;SDS011;64595;50.148;14.334;2024-03-02T11:27:00;19.20;;;11.50;;
75916;SDS011;64595;50.148;14.334;2024-03-02T11:32:16;17.77;;;11.85;;
75916;SDS011;64595;50.148;14.334;2024-03-02T11:34:43;23.90;;;14.50;;
75916;SDS011;64595;50.148;14.334;2024-03-02T11:37:09;21.42;;;11.93;;
75916;SDS011;64595;50.148;14.334;2024-03-02T11:39:35;24.55;;;12.55;;
75916;SDS011;64595;50.148;14.334;2024-03-02T11:42:02;22.70;;;13.02;;
75916;SDS011;64595;50.148;14.334;2024-03-02T11:44:28;21.38;;;12.80;;
75916;SDS011;64595;50.148;14.334;2024-03-02T11:46:57;20.35;;;11.60;;
75916;SDS011;64595;50.148;14.334;2024-03-02T11:49:36;28.98;;;18.83;;
75916;SDS011;64595;50.148;14.334;2024-03-02T11:52:02;21.13;;;14.48;;
75916;SDS011;64595;50.148;14.334;2024-03-02T11:54:28;18.10;;;12.20;;
75916;SDS011;64595;50.148;14.334;2024-03-02T11:56:55;21.20;;;12.25;;
75916;SDS011;64595;50.148;14.334;2024-03-02T11:59:22;19.90;;;11.60;;
75916;SDS011;64595;50.148;14.334;2024-03-02T12:01:48;21.63;;;12.38;;
75916;SDS011;64595;50.148;14.334;2024-03-02T12:04:14;19.92;;;12.63;;
75916;SDS011;64595;50.148;14.334;2024-03-02T12:06:40;21.85;;;13.10;;
75916;SDS011;64595;50.148;14.334;2024-03-02T12:09:06;21.38;;;12.27;;
75916;SDS011;64595;50.148;14.334;2024-03-02T12:11:31;20.17;;;12.02;;
75916;SDS011;64595;50.148;14.334;2024-03-02T12:13:57;18.92;;;12.45;;
75916;SDS011;64595;50.148;14.334;2024-03-02T12:16:24;24.48;;;12.73;;
75916;SDS011;64595;50.148;14.334;2024-03-02T12:18:50;21.08;;;12.45;;
75916;SDS011;64595;50.148;14.334;2024-03-02T12:21:15;18.90;;;11.88;;
75916;SDS011;64595;50.148;14.334;2024-03-02T12:23:41;23.13;;;11.57;;
75916;SDS011;64595;50.148;14.334;2024-03-02T12:26:06;22.83;;;13.57;;
75916;SDS011;64595;50.148;14.334;2024-03-02T12:28:32;20.63;;;11.38;;
75916;SDS011;64595;50.148;14.334;2024-03-02T12:33:34;18.02;;;10.27;;
75916;SDS011;64595;50.148;14.334;2024-03-02T12:35:59;30.77;;;16.60;;
75916;SDS011;64595;50.148;14.334;2024-03-02T12:38:25;22.95;;;14.25;;
75916;SDS011;64595;50.148;14.334;2024-03-02T12:40:51;18.65;;;11.32;;
75916;SDS011;64595;50.148;14.334;2024-03-02T12:43:17;19.25;;;11.60;;
75916;SDS011;64595;50.148;14.334;2024-03-02T12:45:42;18.85;;;11.68;;
75916;SDS011;64595;50.148;14.334;2024-03-02T12:48:08;17.17;;;11.43;;
75916;SDS011;64595;50.148;14.334;2024-03-02T12:50:35;22.05;;;12.38;;
75916;SDS011;64595;50.148;14.334;2024-03-02T12:53:00;25.40;;;12.55;;
75916;SDS011;64595;50.148;14.334;2024-03-02T12:55:26;21.63;;;11.90;;
75916;SDS011;64595;50.148;14.334;2024-03-02T12:57:51;17.52;;;11.13;;
75916;SDS011;64595;50.148;14.334;2024-03-02T13:00:18;23.15;;;14.45;;
75916;SDS011;64595;50.148;14.334;2024-03-02T13:02:45;23.50;;;12.35;;
75916;SDS011;64595;50.148;14.334;2024-03-02T13:05:11;17.23;;;10.32;;
75916;SDS011;64595;50.148;14.334;2024-03-02T13:07:38;20.45;;;10.95;;
75916;SDS011;64595;50.148;14.334;2024-03-02T13:10:05;17.83;;;11.52;;
75916;SDS011;64595;50.148;14.334;2024-03-02T13:12:31;17.92;;;10.50;;
75916;SDS011;64595;50.148;14.334;2024-03-02T13:14:57;16.10;;;10.07;;
75916;SDS011;64595;50.148;14.334;2024-03-02T13:17:23;16.85;;;10.80;;
75916;SDS011;64595;50.148;14.334;2024-03-02T13:19:52;17.25;;;12.60;;
75916;SDS011;64595;50.148;14.334;2024-03-02T13:22:18;26.95;;;17.15;;
75916;SDS011;64595;50.148;14.334;2024-03-02T13:24:45;32.03;;;21.23;;
75916;SDS011;64595;50.148;14.334;2024-03-02T13:27:10;19.67;;;12.23;;
75916;SDS011;64595;50.148;14.334;2024-03-02T13:29:36;21.55;;;12.23;;
75916;SDS011;64595;50.148;14.334;2024-03-02T13:32:01;48.22;;;32.72;;
75916;SDS011;64595;50.148;14.334;2024-03-02T13:34:27;20.20;;;12.10;;
75916;SDS011;64595;50.148;14.334;2024-03-02T13:36:52;43.58;;;30.73;;
75916;SDS011;64595;50.148;14.334;2024-03-02T13:39:17;28.05;;;20.45;;
75916;SDS011;64595;50.148;14.334;2024-03-02T13:41:44;37.55;;;23.10;;
75916;SDS011;64595;50.148;14.334;2024-03-02T13:44:10;45.63;;;34.25;;
75916;SDS011;64595;50.148;14.334;2024-03-02T13:46:35;32.83;;;23.15;;
75916;SDS011;64595;50.148;14.334;2024-03-02T13:49:01;26.77;;;17.58;;
75916;SDS011;64595;50.148;14.334;2024-03-02T13:51:26;19.48;;;12.73;;
75916;SDS011;64595;50.148;14.334;2024-03-02T13:53:52;21.58;;;12.73;;
75916;SDS011;64595;50.148;14.334;2024-03-02T13:56:17;19.48;;;12.02;;
75916;SDS011;64595;50.148;14.334;2024-03-02T13:58:44;18.58;;;11.00;;
75916;SDS011;64595;50.148;14.334;2024-03-02T14:01:09;19.25;;;11.90;;
75916;SDS011;64595;50.148;14.334;2024-03-02T14:03:36;20.25;;;12.57;;
75916;SDS011;64595;50.148;14.334;2024-03-02T14:06:02;23.25;;;13.90;;
75916;SDS011;64595;50.148;14.334;2024-03-02T14:08:28;22.20;;;12.80;;
75916;SDS011;64595;50.148;14.334;2024-03-02T14:10:53;56.05;;;31.42;;
75916;SDS011;64595;50.148;14.334;2024-03-02T14:13:19;23.45;;;15.05;;